sensor_id;sensor_type;location;lat;lon;timestamp;pressure;altitude;pressure_sealevel;temperature;humidity
65666;BME280;52365;47.464;18.976;2023-05-23T00:00:02;99531.44;;;17.50;71.26
65666;BME280;52365;47.464;18.976;2023-05-23T00:00:24;99525.53;;;17.46;71.34
65666;BME280;52365;47.464;18.976;2023-05-23T00:00:45;99527.31;;;17.43;71.42
65666;BME280;52365;47.464;18.976;2023-05-23T00:01:07;99533.97;;;17.42;71.58
65666;BME280;52365;47.464;18.976;2023-05-23T00:01:29;99538.72;;;17.36;71.82
65666;BME280;52365;47.464;18.976;2023-05-23T00:01:51;99532.28;;;17.33;71.99
65666;BME280;52365;47.464;18.976;2023-05-23T00:02:14;99532.53;;;17.35;71.90
65666;BME280;52365;47.464;18.976;2023-05-23T00:02:36;99523.13;;;17.36;71.76
65666;BME280;52365;47.464;18.976;2023-05-23T00:02:57;99530.03;;;17.37;71.60
65666;BME280;52365;47.464;18.976;2023-05-23T00:03:18;99539.47;;;17.36;71.62
65666;BME280;52365;47.464;18.976;2023-05-23T00:03:42;99536.00;;;17.36;71.61
65666;BME280;52365;47.464;18.976;2023-05-23T00:04:03;99527.38;;;17.32;71.60
65666;BME280;52365;47.464;18.976;2023-05-23T00:04:24;99532.28;;;17.33;71.65
65666;BME280;52365;47.464;18.976;2023-05-23T00:04:41;99530.78;;;17.38;71.51
65666;BME280;52365;47.464;18.976;2023-05-23T00:05:03;99536.47;;;17.40;71.35
65666;BME280;52365;47.464;18.976;2023-05-23T00:05:24;99526.78;;;17.45;71.16
65666;BME280;52365;47.464;18.976;2023-05-23T00:05:46;99526.28;;;17.46;71.03
65666;BME280;52365;47.464;18.976;2023-05-23T00:06:07;99530.97;;;17.46;70.91
65666;BME280;52365;47.464;18.976;2023-05-23T00:06:28;99529.78;;;17.41;71.10
65666;BME280;52365;47.464;18.976;2023-05-23T00:06:49;99528.31;;;17.40;71.14
65666;BME280;52365;47.464;18.976;2023-05-23T00:07:10;99532.78;;;17.37;71.27
65666;BME280;52365;47.464;18.976;2023-05-23T00:07:31;99524.88;;;17.34;71.31
65666;BME280;52365;47.464;18.976;2023-05-23T00:07:53;99530.91;;;17.21;71.43
65666;BME280;52365;47.464;18.976;2023-05-23T00:08:14;99533.63;;;17.21;71.74
65666;BME280;52365;47.464;18.976;2023-05-23T00:08:35;99535.37;;;17.19;72.04
65666;BME280;52365;47.464;18.976;2023-05-23T00:08:51;99530.66;;;17.19;72.11
65666;BME280;52365;47.464;18.976;2023-05-23T00:09:13;99533.38;;;17.19;72.29
65666;BME280;52365;47.464;18.976;2023-05-23T00:09:34;99528.91;;;17.22;72.54
65666;BME280;52365;47.464;18.976;2023-05-23T00:09:55;99526.16;;;17.27;72.47
65666;BME280;52365;47.464;18.976;2023-05-23T00:10:16;99530.13;;;17.26;72.44
65666;BME280;52365;47.464;18.976;2023-05-23T00:10:32;99528.94;;;17.16;72.57
65666;BME280;52365;47.464;18.976;2023-05-23T00:10:53;99532.41;;;17.17;72.54
65666;BME280;52365;47.464;18.976;2023-05-23T00:11:14;99530.91;;;17.16;72.56
65666;BME280;52365;47.464;18.976;2023-05-23T00:11:35;99532.69;;;17.07;72.84
65666;BME280;52365;47.464;18.976;2023-05-23T00:11:57;99531.78;;;16.94;73.37
65666;BME280;52365;47.464;18.976;2023-05-23T00:12:18;99530.78;;;16.97;73.42
65666;BME280;52365;47.464;18.976;2023-05-23T00:12:40;99524.09;;;17.03;73.32
65666;BME280;52365;47.464;18.976;2023-05-23T00:13:02;99533.16;;;17.17;73.04
65666;BME280;52365;47.464;18.976;2023-05-23T00:13:23;99533.34;;;17.25;72.62
65666;BME280;52365;47.464;18.976;2023-05-23T00:13:44;99528.87;;;17.27;72.35
65666;BME280;52365;47.464;18.976;2023-05-23T00:14:05;99525.16;;;17.30;72.14
65666;BME280;52365;47.464;18.976;2023-05-23T00:14:28;99529.09;;;17.29;71.97
65666;BME280;52365;47.464;18.976;2023-05-23T00:14:53;99527.16;;;17.24;72.05
65666;BME280;52365;47.464;18.976;2023-05-23T00:15:15;99527.72;;;17.17;72.42
65666;BME280;52365;47.464;18.976;2023-05-23T00:15:31;99524.47;;;17.19;72.52
65666;BME280;52365;47.464;18.976;2023-05-23T00:15:53;99527.91;;;17.25;72.37
65666;BME280;52365;47.464;18.976;2023-05-23T00:16:14;99532.12;;;17.26;72.21
65666;BME280;52365;47.464;18.976;2023-05-23T00:16:36;99531.66;;;17.22;72.35
65666;BME280;52365;47.464;18.976;2023-05-23T00:17:00;99529.88;;;17.24;72.47
65666;BME280;52365;47.464;18.976;2023-05-23T00:17:21;99528.25;;;17.10;72.92
65666;BME280;52365;47.464;18.976;2023-05-23T00:17:45;99522.56;;;17.08;73.18
65666;BME280;52365;47.464;18.976;2023-05-23T00:18:07;99523.31;;;17.08;73.30
65666;BME280;52365;47.464;18.976;2023-05-23T00:18:30;99526.81;;;17.03;73.44
65666;BME280;52365;47.464;18.976;2023-05-23T00:18:51;99530.22;;;17.09;73.44
65666;BME280;52365;47.464;18.976;2023-05-23T00:19:13;99526.75;;;17.09;73.46
65666;BME280;52365;47.464;18.976;2023-05-23T00:19:37;99535.87;;;17.17;73.16
65666;BME280;52365;47.464;18.976;2023-05-23T00:19:58;99532.38;;;17.22;72.86
65666;BME280;52365;47.464;18.976;2023-05-23T00:20:19;99525.47;;;17.21;72.78
65666;BME280;52365;47.464;18.976;2023-05-23T00:20:41;99523.22;;;17.25;72.65
65666;BME280;52365;47.464;18.976;2023-05-23T00:21:05;99526.44;;;17.24;72.57
65666;BME280;52365;47.464;18.976;2023-05-23T00:21:26;99527.47;;;17.15;72.91
65666;BME280;52365;47.464;18.976;2023-05-23T00:21:47;99527.25;;;17.13;73.18
65666;BME280;52365;47.464;18.976;2023-05-23T00:22:08;99527.50;;;17.09;73.45
65666;BME280;52365;47.464;18.976;2023-05-23T00:22:30;99527.72;;;17.17;73.24
65666;BME280;52365;47.464;18.976;2023-05-23T00:22:51;99524.47;;;17.19;73.15
65666;BME280;52365;47.464;18.976;2023-05-23T00:23:12;99532.66;;;17.19;73.25
65666;BME280;52365;47.464;18.976;2023-05-23T00:23:38;99527.19;;;17.19;73.25
65666;BME280;52365;47.464;18.976;2023-05-23T00:24:02;99532.16;;;17.15;73.44
65666;BME280;52365;47.464;18.976;2023-05-23T00:24:24;99518.81;;;17.11;73.51
65666;BME280;52365;47.464;18.976;2023-05-23T00:24:45;99527.00;;;17.11;73.65
65666;BME280;52365;47.464;18.976;2023-05-23T00:25:07;99535.87;;;17.17;73.53
65666;BME280;52365;47.464;18.976;2023-05-23T00:25:29;99528.25;;;17.10;73.70
65666;BME280;52365;47.464;18.976;2023-05-23T00:25:55;99530.19;;;17.15;73.62
65666;BME280;52365;47.464;18.976;2023-05-23T00:26:18;99526.94;;;17.22;73.54
65666;BME280;52365;47.464;18.976;2023-05-23T00:26:39;99525.47;;;17.21;73.44
65666;BME280;52365;47.464;18.976;2023-05-23T00:27:00;99523.47;;;17.22;73.46
65666;BME280;52365;47.464;18.976;2023-05-23T00:27:21;99529.16;;;17.24;73.32
65666;BME280;52365;47.464;18.976;2023-05-23T00:27:37;99526.91;;;17.28;73.15
65666;BME280;52365;47.464;18.976;2023-05-23T00:28:03;99525.41;;;17.27;73.09
65666;BME280;52365;47.464;18.976;2023-05-23T00:28:24;99526.97;;;17.17;73.27
65666;BME280;52365;47.464;18.976;2023-05-23T00:28:45;99535.63;;;17.15;73.42
65666;BME280;52365;47.464;18.976;2023-05-23T00:29:06;99531.44;;;17.14;73.49
65666;BME280;52365;47.464;18.976;2023-05-23T00:29:27;99531.94;;;17.12;73.49
65666;BME280;52365;47.464;18.976;2023-05-23T00:29:48;99528.41;;;17.23;73.36
65666;BME280;52365;47.464;18.976;2023-05-23T00:30:10;99528.66;;;17.25;73.20
65666;BME280;52365;47.464;18.976;2023-05-23T00:30:32;99525.41;;;17.27;73.06
65666;BME280;52365;47.464;18.976;2023-05-23T00:30:53;99535.16;;;17.17;73.23
65666;BME280;52365;47.464;18.976;2023-05-23T00:31:14;99530.66;;;17.19;73.19
65666;BME280;52365;47.464;18.976;2023-05-23T00:31:35;99523.22;;;17.20;73.16
65666;BME280;52365;47.464;18.976;2023-05-23T00:31:56;99530.66;;;17.19;73.19
65666;BME280;52365;47.464;18.976;2023-05-23T00:32:17;99525.22;;;17.19;73.19
65666;BME280;52365;47.464;18.976;2023-05-23T00:32:38;99519.84;;;17.08;73.36
65666;BME280;52365;47.464;18.976;2023-05-23T00:32:59;99522.56;;;17.08;73.46
65666;BME280;52365;47.464;18.976;2023-05-23T00:33:21;99522.56;;;17.08;73.46
65666;BME280;52365;47.464;18.976;2023-05-23T00:33:42;99520.31;;;17.12;73.37
65666;BME280;52365;47.464;18.976;2023-05-23T00:34:03;99525.25;;;17.14;73.28
65666;BME280;52365;47.464;18.976;2023-05-23T00:34:19;99527.94;;;17.19;73.14
65666;BME280;52365;47.464;18.976;2023-05-23T00:34:40;99518.81;;;17.17;73.06
65666;BME280;52365;47.464;18.976;2023-05-23T00:35:01;99518.34;;;17.12;73.09
65666;BME280;52365;47.464;18.976;2023-05-23T00:35:22;99519.28;;;17.15;72.99
65666;BME280;52365;47.464;18.976;2023-05-23T00:35:43;99520.03;;;17.16;73.01
65666;BME280;52365;47.464;18.976;2023-05-23T00:36:04;99521.28;;;17.15;73.07
65666;BME280;52365;47.464;18.976;2023-05-23T00:36:25;99519.28;;;17.15;73.20
65666;BME280;52365;47.464;18.976;2023-05-23T00:36:46;99525.00;;;17.11;73.45
65666;BME280;52365;47.464;18.976;2023-05-23T00:37:09;99521.72;;;17.24;73.26
65666;BME280;52365;47.464;18.976;2023-05-23T00:37:31;99517.00;;;17.25;73.00
65666;BME280;52365;47.464;18.976;2023-05-23T00:37:53;99515.56;;;17.18;73.01
65666;BME280;52365;47.464;18.976;2023-05-23T00:38:10;99513.81;;;17.21;72.93
65666;BME280;52365;47.464;18.976;2023-05-23T00:38:31;99516.03;;;17.22;72.87
65666;BME280;52365;47.464;18.976;2023-05-23T00:38:52;99521.25;;;17.20;72.84
65666;BME280;52365;47.464;18.976;2023-05-23T00:39:14;99519.78;;;17.19;72.81
65666;BME280;52365;47.464;18.976;2023-05-23T00:39:39;99521.06;;;17.07;72.99
65666;BME280;52365;47.464;18.976;2023-05-23T00:40:00;99523.53;;;17.10;73.10
65666;BME280;52365;47.464;18.976;2023-05-23T00:40:21;99523.53;;;17.10;73.10
65666;BME280;52365;47.464;18.976;2023-05-23T00:40:43;99525.28;;;17.08;73.27
65666;BME280;52365;47.464;18.976;2023-05-23T00:41:00;99530.75;;;17.08;73.32
65666;BME280;52365;47.464;18.976;2023-05-23T00:41:21;99526.28;;;17.05;73.40
65666;BME280;52365;47.464;18.976;2023-05-23T00:41:42;99526.03;;;17.08;73.33
65666;BME280;52365;47.464;18.976;2023-05-23T00:42:04;99522.31;;;17.06;73.33
65666;BME280;52365;47.464;18.976;2023-05-23T00:42:25;99524.56;;;17.02;73.51
65666;BME280;52365;47.464;18.976;2023-05-23T00:42:41;99528.28;;;17.04;73.45
65666;BME280;52365;47.464;18.976;2023-05-23T00:43:02;99526.25;;;17.10;73.34
65666;BME280;52365;47.464;18.976;2023-05-23T00:43:23;99525.81;;;17.01;73.45
65666;BME280;52365;47.464;18.976;2023-05-23T00:43:44;99525.34;;;16.97;73.57
65666;BME280;52365;47.464;18.976;2023-05-23T00:44:05;99526.28;;;17.05;73.40
65666;BME280;52365;47.464;18.976;2023-05-23T00:44:26;99524.03;;;17.09;73.24
65666;BME280;52365;47.464;18.976;2023-05-23T00:44:47;99527.19;;;17.19;72.98
65666;BME280;52365;47.464;18.976;2023-05-23T00:45:04;99523.47;;;17.22;72.68
65666;BME280;52365;47.464;18.976;2023-05-23T00:45:25;99530.41;;;17.23;72.43
65666;BME280;52365;47.464;18.976;2023-05-23T00:45:50;99533.34;;;17.25;72.21
65666;BME280;52365;47.464;18.976;2023-05-23T00:46:11;99528.19;;;17.21;72.07
65666;BME280;52365;47.464;18.976;2023-05-23T00:46:33;99528.19;;;17.21;72.07
65666;BME280;52365;47.464;18.976;2023-05-23T00:46:55;99530.16;;;17.21;72.06
65666;BME280;52365;47.464;18.976;2023-05-23T00:47:17;99534.84;;;17.20;71.99
65666;BME280;52365;47.464;18.976;2023-05-23T00:47:33;99526.19;;;17.22;71.94
65666;BME280;52365;47.464;18.976;2023-05-23T00:47:54;99533.41;;;17.14;72.25
65666;BME280;52365;47.464;18.976;2023-05-23T00:48:15;99527.81;;;17.00;72.72
65666;BME280;52365;47.464;18.976;2023-05-23T00:48:32;99527.63;;;16.87;73.48
65666;BME280;52365;47.464;18.976;2023-05-23T00:48:48;99529.63;;;16.81;73.88
65666;BME280;52365;47.464;18.976;2023-05-23T00:49:09;99527.41;;;16.79;74.04
65666;BME280;52365;47.464;18.976;2023-05-23T00:49:30;99527.41;;;16.79;74.08
65666;BME280;52365;47.464;18.976;2023-05-23T00:49:51;99531.59;;;16.86;74.06
65666;BME280;52365;47.464;18.976;2023-05-23T00:50:14;99529.13;;;16.82;74.04
65666;BME280;52365;47.464;18.976;2023-05-23T00:50:35;99528.87;;;16.80;74.12
65666;BME280;52365;47.464;18.976;2023-05-23T00:50:56;99527.41;;;16.79;74.19
65666;BME280;52365;47.464;18.976;2023-05-23T00:51:19;99530.16;;;16.74;74.35
65666;BME280;52365;47.464;18.976;2023-05-23T00:51:40;99529.91;;;16.77;74.37
65666;BME280;52365;47.464;18.976;2023-05-23T00:52:03;99525.38;;;16.85;74.20
65666;BME280;52365;47.464;18.976;2023-05-23T00:52:24;99530.59;;;16.83;74.17
65666;BME280;52365;47.464;18.976;2023-05-23T00:52:47;99531.13;;;16.76;74.43
65666;BME280;52365;47.464;18.976;2023-05-23T00:53:08;99528.09;;;16.85;74.41
65666;BME280;52365;47.464;18.976;2023-05-23T00:53:24;99530.13;;;16.79;74.47
65666;BME280;52365;47.464;18.976;2023-05-23T00:53:46;99524.66;;;16.85;74.44
65666;BME280;52365;47.464;18.976;2023-05-23T00:54:08;99531.78;;;16.99;74.08
65666;BME280;52365;47.464;18.976;2023-05-23T00:54:29;99524.25;;;17.11;73.64
65666;BME280;52365;47.464;18.976;2023-05-23T00:54:51;99520.75;;;17.22;73.12
65666;BME280;52365;47.464;18.976;2023-05-23T00:55:12;99525.72;;;17.18;72.59
65666;BME280;52365;47.464;18.976;2023-05-23T00:55:29;99526.97;;;17.17;72.44
65666;BME280;52365;47.464;18.976;2023-05-23T00:55:50;99523.22;;;17.20;72.43
65666;BME280;52365;47.464;18.976;2023-05-23T00:56:11;99525.69;;;17.23;72.33
65666;BME280;52365;47.464;18.976;2023-05-23T00:56:33;99523.22;;;17.20;72.27
65666;BME280;52365;47.464;18.976;2023-05-23T00:56:55;99523.03;;;17.12;72.53
65666;BME280;52365;47.464;18.976;2023-05-23T00:57:16;99525.56;;;16.99;73.10
65666;BME280;52365;47.464;18.976;2023-05-23T00:57:37;99524.84;;;16.98;73.53
65666;BME280;52365;47.464;18.976;2023-05-23T00:57:59;99528.28;;;17.04;73.41
65666;BME280;52365;47.464;18.976;2023-05-23T00:58:20;99525.00;;;17.11;73.22
65666;BME280;52365;47.464;18.976;2023-05-23T00:58:41;99525.38;;;16.91;73.53
65666;BME280;52365;47.464;18.976;2023-05-23T00:59:02;99527.03;;;17.05;73.54
65666;BME280;52365;47.464;18.976;2023-05-23T00:59:25;99525.72;;;17.18;73.06
65666;BME280;52365;47.464;18.976;2023-05-23T00:59:46;99525.31;;;17.02;73.01
65666;BME280;52365;47.464;18.976;2023-05-23T01:00:11;99529.53;;;16.98;73.23
65666;BME280;52365;47.464;18.976;2023-05-23T01:00:32;99527.31;;;16.96;73.44
65666;BME280;52365;47.464;18.976;2023-05-23T01:00:54;99528.03;;;17.02;73.44
65666;BME280;52365;47.464;18.976;2023-05-23T01:01:15;99526.16;;;16.86;73.60
65666;BME280;52365;47.464;18.976;2023-05-23T01:01:36;99526.16;;;16.80;73.89
65666;BME280;52365;47.464;18.976;2023-05-23T01:01:59;99525.84;;;16.95;73.81
65666;BME280;52365;47.464;18.976;2023-05-23T01:02:20;99524.84;;;16.98;73.45
65666;BME280;52365;47.464;18.976;2023-05-23T01:02:45;99530.81;;;16.85;73.79
65666;BME280;52365;47.464;18.976;2023-05-23T01:03:07;99534.09;;;16.78;74.28
65666;BME280;52365;47.464;18.976;2023-05-23T01:03:23;99529.84;;;16.89;74.13
65666;BME280;52365;47.464;18.976;2023-05-23T01:03:48;99527.84;;;16.95;73.88
65666;BME280;52365;47.464;18.976;2023-05-23T01:04:09;99526.81;;;17.03;73.60
65666;BME280;52365;47.464;18.976;2023-05-23T01:04:31;99527.47;;;17.15;73.24
65666;BME280;52365;47.464;18.976;2023-05-23T01:04:54;99530.13;;;17.26;72.74
65666;BME280;52365;47.464;18.976;2023-05-23T01:05:16;99525.00;;;17.11;72.41
65666;BME280;52365;47.464;18.976;2023-05-23T01:05:38;99523.78;;;17.07;72.43
65666;BME280;52365;47.464;18.976;2023-05-23T01:05:59;99528.31;;;16.93;72.85
65666;BME280;52365;47.464;18.976;2023-05-23T01:06:22;99520.63;;;16.97;72.95
65666;BME280;52365;47.464;18.976;2023-05-23T01:06:43;99526.34;;;16.94;73.08
65666;BME280;52365;47.464;18.976;2023-05-23T01:07:01;99526.59;;;16.96;73.05
65666;BME280;52365;47.464;18.976;2023-05-23T01:07:22;99532.78;;;16.96;73.08
65666;BME280;52365;47.464;18.976;2023-05-23T01:07:44;99523.13;;;16.90;73.35
65666;BME280;52365;47.464;18.976;2023-05-23T01:08:06;99527.09;;;16.89;73.63
65666;BME280;52365;47.464;18.976;2023-05-23T01:08:28;99525.38;;;16.85;73.67
65666;BME280;52365;47.464;18.976;2023-05-23T01:08:49;99522.91;;;16.87;73.77
65666;BME280;52365;47.464;18.976;2023-05-23T01:09:17;99530.09;;;16.91;73.70
65666;BME280;52365;47.464;18.976;2023-05-23T01:09:40;99528.09;;;16.85;73.87
65666;BME280;52365;47.464;18.976;2023-05-23T01:10:02;99533.31;;;16.83;73.83
65666;BME280;52365;47.464;18.976;2023-05-23T01:10:28;99527.41;;;16.79;73.95
65666;BME280;52365;47.464;18.976;2023-05-23T01:10:50;99529.34;;;16.84;73.88
65666;BME280;52365;47.464;18.976;2023-05-23T01:11:32;99528.34;;;16.87;73.77
65666;BME280;52365;47.464;18.976;2023-05-23T01:12:38;99529.31;;;16.96;73.45
65666;BME280;52365;47.464;18.976;2023-05-23T01:13:19;99531.22;;;17.06;72.98
65666;BME280;52365;47.464;18.976;2023-05-23T01:13:52;99530.66;;;17.19;72.48
65666;BME280;52365;47.464;18.976;2023-05-23T01:14:21;99528.41;;;17.23;71.92
65666;BME280;52365;47.464;18.976;2023-05-23T01:14:50;99517.59;;;17.12;71.79
65666;BME280;52365;47.464;18.976;2023-05-23T01:15:18;99525.78;;;17.12;71.85
65666;BME280;52365;47.464;18.976;2023-05-23T01:15:51;99524.31;;;17.05;71.91
65666;BME280;52365;47.464;18.976;2023-05-23T01:16:17;99518.13;;;17.05;72.13
65666;BME280;52365;47.464;18.976;2023-05-23T01:16:48;99528.81;;;16.97;72.19
65666;BME280;52365;47.464;18.976;2023-05-23T01:17:20;99526.56;;;17.01;72.29
65666;BME280;52365;47.464;18.976;2023-05-23T01:17:55;99527.53;;;17.04;72.12
65666;BME280;52365;47.464;18.976;2023-05-23T01:18:55;99525.28;;;17.08;72.06
65666;BME280;52365;47.464;18.976;2023-05-23T01:20:06;99520.41;;;16.90;72.78
65666;BME280;52365;47.464;18.976;2023-05-23T01:20:34;99526.69;;;16.73;73.65
65666;BME280;52365;47.464;18.976;2023-05-23T01:21:05;99518.53;;;16.62;74.16
65666;BME280;52365;47.464;18.976;2023-05-23T01:21:27;99523.47;;;16.69;74.21
65666;BME280;52365;47.464;18.976;2023-05-23T01:21:52;99526.94;;;16.75;74.06
65666;BME280;52365;47.464;18.976;2023-05-23T01:22:28;99525.69;;;16.76;74.00
65666;BME280;52365;47.464;18.976;2023-05-23T01:23:04;99516.00;;;16.86;73.66
65666;BME280;52365;47.464;18.976;2023-05-23T01:26:30;99517.72;;;16.84;73.21
65666;BME280;52365;47.464;18.976;2023-05-23T01:27:25;99517.69;;;16.90;72.63
65666;BME280;52365;47.464;18.976;2023-05-23T01:27:51;99518.13;;;17.05;72.34
65666;BME280;52365;47.464;18.976;2023-05-23T01:28:12;99521.59;;;17.05;71.83
65666;BME280;52365;47.464;18.976;2023-05-23T01:28:37;99525.31;;;17.02;71.84
65666;BME280;52365;47.464;18.976;2023-05-23T01:29:08;99515.69;;;16.96;71.97
65666;BME280;52365;47.464;18.976;2023-05-23T01:29:31;99521.41;;;16.92;72.21
65666;BME280;52365;47.464;18.976;2023-05-23T01:29:57;99516.47;;;16.85;72.42
65666;BME280;52365;47.464;18.976;2023-05-23T01:30:23;99520.28;;;16.65;73.30
65666;BME280;52365;47.464;18.976;2023-05-23T01:30:47;99511.59;;;16.67;73.49
65666;BME280;52365;47.464;18.976;2023-05-23T01:31:11;99514.06;;;16.76;73.37
65666;BME280;52365;47.464;18.976;2023-05-23T01:31:34;99512.81;;;16.82;73.08
65666;BME280;52365;47.464;18.976;2023-05-23T01:31:57;99515.75;;;16.84;72.92
65666;BME280;52365;47.464;18.976;2023-05-23T01:32:18;99523.69;;;16.77;73.01
65666;BME280;52365;47.464;18.976;2023-05-23T01:32:42;99517.28;;;16.74;73.16
65666;BME280;52365;47.464;18.976;2023-05-23T01:33:06;99515.81;;;16.73;73.21
65666;BME280;52365;47.464;18.976;2023-05-23T01:33:24;99515.28;;;16.80;73.19
65666;BME280;52365;47.464;18.976;2023-05-23T01:33:47;99510.09;;;16.77;73.24
65666;BME280;52365;47.464;18.976;2023-05-23T01:34:11;99515.53;;;16.77;73.28
65666;BME280;52365;47.464;18.976;2023-05-23T01:34:34;99510.84;;;16.77;73.24
65666;BME280;52365;47.464;18.976;2023-05-23T01:34:57;99519.00;;;16.77;73.31
65666;BME280;52365;47.464;18.976;2023-05-23T01:35:18;99509.84;;;16.75;73.32
65666;BME280;52365;47.464;18.976;2023-05-23T01:35:44;99507.91;;;16.64;73.54
65666;BME280;52365;47.464;18.976;2023-05-23T01:36:06;99507.69;;;16.56;73.97
65666;BME280;52365;47.464;18.976;2023-05-23T01:36:28;99506.22;;;16.55;73.97
65666;BME280;52365;47.464;18.976;2023-05-23T01:36:54;99508.97;;;16.44;74.27
65666;BME280;52365;47.464;18.976;2023-05-23T01:37:16;99500.28;;;16.46;74.36
65666;BME280;52365;47.464;18.976;2023-05-23T01:37:40;99505.50;;;16.44;74.58
65666;BME280;52365;47.464;18.976;2023-05-23T01:38:01;99504.25;;;16.45;74.71
65666;BME280;52365;47.464;18.976;2023-05-23T01:38:22;99513.87;;;16.57;74.36
65666;BME280;52365;47.464;18.976;2023-05-23T01:38:42;99510.09;;;16.71;74.02
65666;BME280;52365;47.464;18.976;2023-05-23T01:39:03;99505.16;;;16.75;73.70
65666;BME280;52365;47.464;18.976;2023-05-23T01:39:26;99509.59;;;16.78;73.40
65666;BME280;52365;47.464;18.976;2023-05-23T01:39:47;99507.88;;;16.75;73.39
65666;BME280;52365;47.464;18.976;2023-05-23T01:40:08;99504.66;;;16.71;73.45
65666;BME280;52365;47.464;18.976;2023-05-23T01:40:29;99508.13;;;16.66;73.47
65666;BME280;52365;47.464;18.976;2023-05-23T01:40:50;99503.44;;;16.67;73.59
65666;BME280;52365;47.464;18.976;2023-05-23T01:41:11;99499.72;;;16.70;73.48
65666;BME280;52365;47.464;18.976;2023-05-23T01:41:32;99504.66;;;16.71;73.41
65666;BME280;52365;47.464;18.976;2023-05-23T01:41:53;99506.63;;;16.76;73.27
65666;BME280;52365;47.464;18.976;2023-05-23T01:42:14;99496.47;;;16.77;73.06
65666;BME280;52365;47.464;18.976;2023-05-23T01:42:36;99499.72;;;16.75;72.99
65666;BME280;52365;47.464;18.976;2023-05-23T01:42:57;99500.19;;;16.79;72.94
65666;BME280;52365;47.464;18.976;2023-05-23T01:43:18;99500.44;;;16.76;72.86
65666;BME280;52365;47.464;18.976;2023-05-23T01:43:40;99497.25;;;16.77;72.84
65666;BME280;52365;47.464;18.976;2023-05-23T01:44:01;99497.00;;;16.75;72.87
65666;BME280;52365;47.464;18.976;2023-05-23T01:44:23;99498.47;;;16.76;72.81
65666;BME280;52365;47.464;18.976;2023-05-23T01:44:44;99503.69;;;16.74;72.90
65666;BME280;52365;47.464;18.976;2023-05-23T01:45:06;99505.16;;;16.75;72.89
65666;BME280;52365;47.464;18.976;2023-05-23T01:45:28;99495.75;;;16.76;72.83
65666;BME280;52365;47.464;18.976;2023-05-23T01:45:53;99502.69;;;16.77;72.73
65666;BME280;52365;47.464;18.976;2023-05-23T01:46:16;99498.75;;;16.73;72.80
65666;BME280;52365;47.464;18.976;2023-05-23T01:46:38;99500.47;;;16.65;73.11
65666;BME280;52365;47.464;18.976;2023-05-23T01:47:06;99498.50;;;16.65;73.28
65666;BME280;52365;47.464;18.976;2023-05-23T01:47:28;99496.00;;;16.67;73.24
65666;BME280;52365;47.464;18.976;2023-05-23T01:47:49;99500.00;;;16.60;73.36
65666;BME280;52365;47.464;18.976;2023-05-23T01:48:11;99500.00;;;16.55;73.51
65666;BME280;52365;47.464;18.976;2023-05-23T01:48:33;99500.78;;;16.50;73.62
65666;BME280;52365;47.464;18.976;2023-05-23T01:48:56;99496.28;;;16.58;73.57
65666;BME280;52365;47.464;18.976;2023-05-23T01:49:19;99505.97;;;16.53;73.61
65666;BME280;52365;47.464;18.976;2023-05-23T01:49:42;99501.72;;;16.58;73.53
65666;BME280;52365;47.464;18.976;2023-05-23T01:50:05;99493.81;;;16.60;73.40
65666;BME280;52365;47.464;18.976;2023-05-23T01:50:27;99498.75;;;16.61;73.29
65666;BME280;52365;47.464;18.976;2023-05-23T01:50:48;99499.97;;;16.66;73.14
65666;BME280;52365;47.464;18.976;2023-05-23T01:51:10;99497.75;;;16.65;73.08
65666;BME280;52365;47.464;18.976;2023-05-23T01:51:32;99495.53;;;16.63;73.11
65666;BME280;52365;47.464;18.976;2023-05-23T01:51:54;99503.69;;;16.63;73.16
65666;BME280;52365;47.464;18.976;2023-05-23T01:52:15;99500.00;;;16.60;73.31
65666;BME280;52365;47.464;18.976;2023-05-23T01:52:36;99495.53;;;16.63;73.19
65666;BME280;52365;47.464;18.976;2023-05-23T01:52:58;99498.50;;;16.65;73.10
65666;BME280;52365;47.464;18.976;2023-05-23T01:53:21;99497.72;;;16.70;72.94
65666;BME280;52365;47.464;18.976;2023-05-23T01:53:43;99502.22;;;16.73;72.73
65666;BME280;52365;47.464;18.976;2023-05-23T01:54:04;99498.97;;;16.69;72.63
65666;BME280;52365;47.464;18.976;2023-05-23T01:54:26;99498.25;;;16.69;72.66
65666;BME280;52365;47.464;18.976;2023-05-23T01:54:50;99502.44;;;16.70;72.61
65666;BME280;52365;47.464;18.976;2023-05-23T01:55:07;99497.00;;;16.75;72.52
65666;BME280;52365;47.464;18.976;2023-05-23T01:55:31;99489.81;;;16.78;72.35
65666;BME280;52365;47.464;18.976;2023-05-23T01:55:53;99497.34;;;17.02;72.04
65666;BME280;52365;47.464;18.976;2023-05-23T01:56:09;99499.13;;;17.29;71.28
65666;BME280;52365;47.464;18.976;2023-05-23T01:56:30;99496.56;;;17.48;70.58
65666;BME280;52365;47.464;18.976;2023-05-23T01:56:52;99495.97;;;17.55;69.95
65666;BME280;52365;47.464;18.976;2023-05-23T01:57:14;99497.66;;;17.64;69.44
65666;BME280;52365;47.464;18.976;2023-05-23T01:57:36;99492.94;;;17.65;69.20
65666;BME280;52365;47.464;18.976;2023-05-23T01:57:58;99493.56;;;17.46;69.19
65666;BME280;52365;47.464;18.976;2023-05-23T01:58:20;99490.97;;;17.29;69.68
65666;BME280;52365;47.464;18.976;2023-05-23T01:58:36;99490.59;;;17.14;70.19
65666;BME280;52365;47.464;18.976;2023-05-23T01:58:57;99492.88;;;17.04;70.51
65666;BME280;52365;47.464;18.976;2023-05-23T01:59:18;99504.06;;;16.95;70.94
65666;BME280;52365;47.464;18.976;2023-05-23T01:59:39;99498.72;;;16.78;71.62
65666;BME280;52365;47.464;18.976;2023-05-23T02:00:01;99486.34;;;16.77;71.92
65666;BME280;52365;47.464;18.976;2023-05-23T02:00:22;99498.72;;;16.67;72.40
65666;BME280;52365;47.464;18.976;2023-05-23T02:00:43;99494.56;;;16.55;73.03
65666;BME280;52365;47.464;18.976;2023-05-23T02:01:04;99486.47;;;16.44;73.77
65666;BME280;52365;47.464;18.976;2023-05-23T02:01:25;99491.91;;;16.44;73.95